Chengdu, China
Current Conditions -  °F | °C
As of 10:00 PM on Friday 28 Nov 2014 (Local Time) from ZUUU Reporting Station
Scattered Clouds Scattered Clouds  
Wind Chill: 57°   Ceiling: Unl
Heat Index: 57°   Visibility: 5mi
Dew Point: 45°   Wind: 4mph
Humidity: 63%   Direction: 60°ENE
Pressure: 29.88"   Gusts: NA
Location:  30.67°N, 104.07°E
Report Text: ZUUU 281400Z 06002MPS 030V090 8000 SCT040 14/07 Q1012 NOSIG
Loading
Personal Weather Stations






























Interactive Weather Map New forecast layout! Learn more

10-Day Weather Forecast

Advertisements
Track Severe Weather on mobile